UAL1067 MPTO-SGAS
Flight info
| Callsign | UAL1067 |
|---|---|
| Flight time | 5h 36m |
| Altitude | 31000 |
| Route | ANGUD1B ANGUD DANDA IRATA UN420 VUPIR VUPIR |
| Aircraft | A21N/M-SDE2E3FGHIRWXY/LB1 |
Departure
| Time | 2026-04-23 22:00 |
|---|---|
| Airport | Tocumen International Airport (MPTO) |
Arrival
| Time | 2026-04-24 03:37 |
|---|---|
| Airport | Silvio Pettirossi International Airport (SGAS) |
| Time | Latitude | Longitude | Altitude | Speed | Heading |
|---|---|---|---|---|---|
| 2026-04-23 21:08 | 9.07097 | -79.38585 | 53 ft | 0 kts | 120° |
| 2026-04-23 21:50 | 9.07105 | -79.38600 | 51 ft | 4 kts | 111° |
| 2026-04-23 21:50 | 9.07111 | -79.38626 | 52 ft | 4 kts | 86° |
| 2026-04-23 21:51 | 9.07103 | -79.38648 | 47 ft | 4 kts | 37° |
| 2026-04-23 21:51 | 9.07099 | -79.38652 | 47 ft | 2 kts | 29° |
| 2026-04-23 21:54 | 9.07101 | -79.38650 | 53 ft | 2 kts | 29° |
| 2026-04-23 21:54 | 9.07120 | -79.38640 | 52 ft | 5 kts | 29° |
| 2026-04-23 21:54 | 9.07158 | -79.38619 | 53 ft | 8 kts | 28° |
| 2026-04-23 21:55 | 9.07215 | -79.38587 | 53 ft | 11 kts | 27° |
| 2026-04-23 21:55 | 9.07264 | -79.38563 | 53 ft | 12 kts | 27° |
| 2026-04-23 21:55 | 9.07306 | -79.38506 | 53 ft | 11 kts | 105° |
| 2026-04-23 21:55 | 9.07271 | -79.38439 | 51 ft | 10 kts | 119° |
| 2026-04-23 21:56 | 9.07239 | -79.38380 | 53 ft | 9 kts | 118° |
| 2026-04-23 21:56 | 9.07210 | -79.38326 | 53 ft | 8 kts | 119° |
| 2026-04-23 21:56 | 9.07183 | -79.38278 | 53 ft | 8 kts | 118° |
| 2026-04-23 21:56 | 9.07151 | -79.38217 | 53 ft | 11 kts | 117° |
| 2026-04-23 21:57 | 9.07117 | -79.38135 | 53 ft | 14 kts | 86° |
| 2026-04-23 21:57 | 9.07171 | -79.38078 | 53 ft | 7 kts | 28° |
| 2026-04-23 21:57 | 9.07202 | -79.38050 | 53 ft | 6 kts | 62° |
| 2026-04-23 21:57 | 9.07198 | -79.38001 | 53 ft | 8 kts | 117° |
| 2026-04-23 21:58 | 9.07168 | -79.37949 | 52 ft | 8 kts | 121° |
| 2026-04-23 21:58 | 9.07128 | -79.37921 | 53 ft | 7 kts | 183° |
| 2026-04-23 21:58 | 9.07090 | -79.37938 | 53 ft | 0 kts | 209° |
| 2026-04-23 21:59 | 9.07053 | -79.37958 | 52 ft | 29 kts | 209° |
| 2026-04-23 21:59 | 9.06666 | -79.38185 | 50 ft | 99 kts | 207° |
| 2026-04-23 22:00 | 9.04814 | -79.39199 | 175 ft | 183 kts | 207° |
| 2026-04-23 22:00 | 9.03686 | -79.39781 | 745 ft | 175 kts | 208° |
| 2026-04-23 22:00 | 9.02629 | -79.40322 | 1340 ft | 175 kts | 206° |
| 2026-04-23 22:00 | 9.01477 | -79.40913 | 1558 ft | 196 kts | 208° |
| 2026-04-23 22:01 | 9.00256 | -79.41655 | 1917 ft | 212 kts | 213° |
| 2026-04-23 22:01 | 8.98967 | -79.42454 | 2361 ft | 223 kts | 211° |
| 2026-04-23 22:01 | 8.97577 | -79.43264 | 2716 ft | 242 kts | 211° |
| 2026-04-23 22:01 | 8.96051 | -79.44153 | 3051 ft | 262 kts | 210° |
| 2026-04-23 22:02 | 8.94453 | -79.45087 | 3659 ft | 268 kts | 210° |
| 2026-04-23 22:02 | 8.92824 | -79.46024 | 4368 ft | 271 kts | 210° |
| 2026-04-23 22:02 | 8.91168 | -79.46952 | 5067 ft | 274 kts | 208° |
| 2026-04-23 22:02 | 8.89438 | -79.47764 | 5771 ft | 275 kts | 194° |
| 2026-04-23 22:03 | 8.87516 | -79.47796 | 6305 ft | 281 kts | 166° |
| 2026-04-23 22:03 | 8.85670 | -79.47205 | 7038 ft | 278 kts | 160° |
| 2026-04-23 22:03 | 8.83823 | -79.46540 | 7557 ft | 285 kts | 160° |
| 2026-04-23 22:03 | 8.81945 | -79.45873 | 8202 ft | 286 kts | 161° |
| 2026-04-23 22:04 | 8.80057 | -79.45229 | 8862 ft | 288 kts | 162° |
| 2026-04-23 22:04 | 8.78149 | -79.44575 | 9481 ft | 290 kts | 161° |
| 2026-04-23 22:04 | 8.76232 | -79.43900 | 10014 ft | 295 kts | 161° |
| 2026-04-23 22:04 | 8.74247 | -79.43210 | 10283 ft | 310 kts | 161° |
| 2026-04-23 22:05 | 8.72170 | -79.42501 | 10488 ft | 327 kts | 162° |
| 2026-04-23 22:05 | 8.69951 | -79.41743 | 10831 ft | 337 kts | 161° |
| 2026-04-23 22:05 | 8.67738 | -79.41020 | 11356 ft | 340 kts | 165° |
| 2026-04-23 22:05 | 8.65437 | -79.40433 | 11904 ft | 343 kts | 167° |
| 2026-04-23 22:06 | 8.63119 | -79.39829 | 12461 ft | 345 kts | 165° |
| 2026-04-23 22:06 | 8.60803 | -79.39146 | 13035 ft | 348 kts | 163° |
| 2026-04-23 22:06 | 8.58533 | -79.38283 | 13575 ft | 351 kts | 155° |
| 2026-04-23 22:06 | 8.56338 | -79.37175 | 14076 ft | 353 kts | 153° |
| 2026-04-23 22:07 | 8.54150 | -79.36027 | 14577 ft | 356 kts | 153° |
| 2026-04-23 22:07 | 8.51950 | -79.34865 | 15056 ft | 359 kts | 153° |
| 2026-04-23 22:07 | 8.49726 | -79.33692 | 15516 ft | 362 kts | 153° |
| 2026-04-23 22:07 | 8.47488 | -79.32512 | 15989 ft | 365 kts | 153° |
| 2026-04-23 22:08 | 8.45268 | -79.31249 | 16448 ft | 368 kts | 147° |
| 2026-04-23 22:08 | 8.43120 | -79.29819 | 16903 ft | 371 kts | 148° |
| 2026-04-23 22:08 | 8.40909 | -79.28455 | 17352 ft | 374 kts | 150° |
| 2026-04-23 22:08 | 8.38630 | -79.27158 | 17796 ft | 377 kts | 152° |
| 2026-04-23 22:09 | 8.36308 | -79.25896 | 18229 ft | 380 kts | 152° |
| 2026-04-23 22:09 | 8.33959 | -79.24646 | 18607 ft | 383 kts | 153° |
| 2026-04-23 22:09 | 8.31585 | -79.23399 | 18979 ft | 386 kts | 153° |
| 2026-04-23 22:09 | 8.29192 | -79.22145 | 19346 ft | 389 kts | 153° |
| 2026-04-23 22:10 | 8.26783 | -79.20878 | 19718 ft | 392 kts | 153° |
| 2026-04-23 22:10 | 8.24363 | -79.19604 | 20083 ft | 394 kts | 153° |
| 2026-04-23 22:10 | 8.21920 | -79.18320 | 20452 ft | 397 kts | 153° |
| 2026-04-23 22:10 | 8.19457 | -79.17029 | 20808 ft | 400 kts | 153° |
| 2026-04-23 22:11 | 8.16982 | -79.15732 | 21183 ft | 402 kts | 153° |
| 2026-04-23 22:11 | 8.14492 | -79.14424 | 21526 ft | 405 kts | 153° |
| 2026-04-23 22:11 | 8.11991 | -79.13112 | 21883 ft | 407 kts | 153° |
| 2026-04-23 22:11 | 8.09466 | -79.11788 | 22229 ft | 410 kts | 153° |
| 2026-04-23 22:12 | 8.06929 | -79.10456 | 22568 ft | 412 kts | 153° |
| 2026-04-23 22:12 | 8.04375 | -79.09115 | 22908 ft | 415 kts | 154° |
| 2026-04-23 22:12 | 8.01808 | -79.07767 | 23241 ft | 418 kts | 154° |
| 2026-04-23 22:12 | 7.99225 | -79.06411 | 23553 ft | 420 kts | 154° |
| 2026-04-23 22:13 | 7.96622 | -79.05046 | 23835 ft | 422 kts | 154° |
| 2026-04-23 22:13 | 7.94015 | -79.03679 | 24134 ft | 423 kts | 154° |
| 2026-04-23 22:13 | 7.91397 | -79.02308 | 24440 ft | 425 kts | 154° |
| 2026-04-23 22:13 | 7.88770 | -79.00929 | 24737 ft | 426 kts | 154° |
| 2026-04-23 22:14 | 7.86132 | -78.99547 | 25033 ft | 428 kts | 154° |
| 2026-04-23 22:14 | 7.83484 | -78.98160 | 25316 ft | 429 kts | 154° |
| 2026-04-23 22:14 | 7.80828 | -78.96767 | 25598 ft | 431 kts | 154° |
| 2026-04-23 22:14 | 7.78164 | -78.95370 | 25879 ft | 433 kts | 154° |
| 2026-04-23 22:15 | 7.75488 | -78.93968 | 26159 ft | 434 kts | 154° |
| 2026-04-23 22:15 | 7.72800 | -78.92559 | 26438 ft | 436 kts | 154° |
| 2026-04-23 22:15 | 7.70109 | -78.91148 | 26710 ft | 437 kts | 154° |
| 2026-04-23 22:15 | 7.67403 | -78.89735 | 26993 ft | 439 kts | 154° |
| 2026-04-23 22:16 | 7.64686 | -78.88320 | 27259 ft | 440 kts | 154° |
| 2026-04-23 22:16 | 7.61963 | -78.86902 | 27522 ft | 442 kts | 154° |
| 2026-04-23 22:16 | 7.59228 | -78.85473 | 27785 ft | 443 kts | 154° |
| 2026-04-23 22:16 | 7.56528 | -78.84058 | 28042 ft | 445 kts | 154° |
| 2026-04-23 22:17 | 7.53777 | -78.82617 | 28294 ft | 446 kts | 154° |
| 2026-04-23 22:17 | 7.51021 | -78.81175 | 28548 ft | 447 kts | 154° |
| 2026-04-23 22:17 | 7.48280 | -78.79670 | 28787 ft | 449 kts | 150° |
| 2026-04-23 22:17 | 7.45594 | -78.78053 | 29030 ft | 451 kts | 150° |
| 2026-04-23 22:18 | 7.42904 | -78.76419 | 29297 ft | 451 kts | 150° |
| 2026-04-23 22:18 | 7.40219 | -78.74787 | 29598 ft | 451 kts | 150° |
| 2026-04-23 22:18 | 7.37529 | -78.73152 | 29852 ft | 452 kts | 150° |
| 2026-04-23 22:18 | 7.34833 | -78.71516 | 30058 ft | 453 kts | 149° |
| 2026-04-23 22:19 | 7.32137 | -78.69880 | 30271 ft | 453 kts | 149° |
| 2026-04-23 22:19 | 7.29437 | -78.68242 | 30494 ft | 453 kts | 149° |
| 2026-04-23 22:19 | 7.26735 | -78.66603 | 30699 ft | 454 kts | 149° |
| 2026-04-23 22:19 | 7.24026 | -78.64962 | 30903 ft | 454 kts | 149° |
| 2026-04-23 22:20 | 7.21325 | -78.63326 | 31145 ft | 453 kts | 149° |
| 2026-04-23 22:20 | 7.18629 | -78.61694 | 31391 ft | 451 kts | 149° |
| 2026-04-23 22:20 | 7.15940 | -78.60067 | 31647 ft | 450 kts | 149° |
| 2026-04-23 22:20 | 7.13267 | -78.58449 | 31900 ft | 448 kts | 149° |
| 2026-04-23 22:21 | 7.10599 | -78.56834 | 32148 ft | 447 kts | 149° |
| 2026-04-23 22:21 | 7.07939 | -78.55221 | 32361 ft | 445 kts | 149° |
| 2026-04-23 22:21 | 7.05294 | -78.53619 | 32604 ft | 444 kts | 149° |
| 2026-04-23 22:21 | 7.02653 | -78.52019 | 32836 ft | 442 kts | 149° |
| 2026-04-23 22:22 | 6.97381 | -78.48827 | 32905 ft | 441 kts | 149° |
| 2026-04-23 22:22 | 6.92157 | -78.45666 | 32885 ft | 441 kts | 149° |
| 2026-04-23 22:23 | 6.86899 | -78.42486 | 32880 ft | 441 kts | 149° |
| 2026-04-23 22:23 | 6.81636 | -78.39302 | 32880 ft | 441 kts | 149° |
| 2026-04-23 22:24 | 6.76377 | -78.36121 | 32875 ft | 441 kts | 149° |
| 2026-04-23 22:24 | 6.71118 | -78.32939 | 32878 ft | 441 kts | 149° |
| 2026-04-23 22:25 | 6.65895 | -78.29767 | 32877 ft | 435 kts | 149° |
| 2026-04-23 22:25 | 6.60709 | -78.26624 | 32877 ft | 435 kts | 149° |
| 2026-04-23 22:26 | 6.55520 | -78.23481 | 32878 ft | 435 kts | 149° |
| 2026-04-23 22:26 | 6.50335 | -78.20339 | 32879 ft | 435 kts | 149° |
| 2026-04-23 22:27 | 6.45145 | -78.17195 | 32879 ft | 435 kts | 149° |
| 2026-04-23 22:27 | 6.39957 | -78.14054 | 32880 ft | 435 kts | 149° |
| 2026-04-23 22:28 | 6.34769 | -78.10916 | 32878 ft | 435 kts | 149° |
| 2026-04-23 22:28 | 6.29580 | -78.07773 | 32882 ft | 435 kts | 149° |
| 2026-04-23 22:29 | 6.24401 | -78.04636 | 32883 ft | 435 kts | 149° |
| 2026-04-23 22:29 | 6.19218 | -78.01496 | 32882 ft | 435 kts | 149° |
| 2026-04-23 22:30 | 6.14037 | -77.98361 | 32883 ft | 435 kts | 149° |
| 2026-04-23 22:30 | 6.08858 | -77.95225 | 32882 ft | 435 kts | 149° |
| 2026-04-23 22:31 | 6.03637 | -77.92069 | 32884 ft | 439 kts | 149° |
| 2026-04-23 22:31 | 5.98437 | -77.88922 | 32880 ft | 439 kts | 149° |
| 2026-04-23 22:32 | 5.93210 | -77.85750 | 32885 ft | 438 kts | 148° |
| 2026-04-23 22:32 | 5.87988 | -77.82596 | 32885 ft | 438 kts | 148° |
| 2026-04-23 22:33 | 5.82769 | -77.79443 | 32885 ft | 438 kts | 148° |
| 2026-04-23 22:33 | 5.77552 | -77.76288 | 32885 ft | 438 kts | 148° |
| 2026-04-23 22:34 | 5.72337 | -77.73141 | 32888 ft | 437 kts | 148° |
| 2026-04-23 22:34 | 5.67123 | -77.69995 | 32889 ft | 437 kts | 148° |
| 2026-04-23 22:35 | 5.61911 | -77.66850 | 32890 ft | 437 kts | 148° |
| 2026-04-23 22:35 | 5.56695 | -77.63711 | 32899 ft | 437 kts | 148° |
| 2026-04-23 22:36 | 5.51480 | -77.60573 | 32895 ft | 437 kts | 148° |
| 2026-04-23 22:36 | 5.46252 | -77.57420 | 32893 ft | 441 kts | 148° |
| 2026-04-23 22:37 | 5.40989 | -77.54227 | 32895 ft | 443 kts | 148° |
| 2026-04-23 22:37 | 5.35711 | -77.51036 | 32902 ft | 443 kts | 148° |
| 2026-04-23 22:38 | 5.30433 | -77.47854 | 32901 ft | 443 kts | 148° |
| 2026-04-23 22:38 | 5.25152 | -77.44673 | 32903 ft | 443 kts | 148° |
| 2026-04-23 22:39 | 5.19871 | -77.41494 | 32898 ft | 442 kts | 148° |
| 2026-04-23 22:39 | 5.14677 | -77.38362 | 32897 ft | 437 kts | 148° |
| 2026-04-23 22:40 | 5.09459 | -77.35218 | 32907 ft | 438 kts | 148° |
| 2026-04-23 22:41 | 5.01628 | -77.30498 | 32906 ft | 438 kts | 148° |
| 2026-04-23 22:41 | 4.96411 | -77.27355 | 32905 ft | 438 kts | 148° |
| 2026-04-23 22:42 | 4.91192 | -77.24211 | 32910 ft | 438 kts | 148° |
| 2026-04-23 22:42 | 4.85958 | -77.21060 | 32906 ft | 442 kts | 148° |
| 2026-04-23 22:43 | 4.80673 | -77.17883 | 32913 ft | 440 kts | 148° |
| 2026-04-23 22:43 | 4.75458 | -77.14748 | 32900 ft | 437 kts | 148° |
| 2026-04-23 22:44 | 4.71124 | -77.12138 | 32902 ft | 437 kts | 148° |
| 2026-04-23 22:44 | 4.65908 | -77.08995 | 32897 ft | 437 kts | 148° |
| 2026-04-23 22:45 | 4.60693 | -77.05860 | 32905 ft | 437 kts | 148° |
| 2026-04-23 22:45 | 4.55477 | -77.02727 | 32896 ft | 437 kts | 148° |
| 2026-04-23 22:46 | 4.50259 | -76.99593 | 32896 ft | 437 kts | 148° |
| 2026-04-23 22:46 | 4.45045 | -76.96455 | 32891 ft | 437 kts | 148° |
| 2026-04-23 22:47 | 4.39804 | -76.93305 | 32899 ft | 440 kts | 148° |
| 2026-04-23 22:47 | 4.34553 | -76.90153 | 32903 ft | 440 kts | 148° |
| 2026-04-23 22:48 | 4.29307 | -76.86996 | 32900 ft | 440 kts | 148° |
| 2026-04-23 22:48 | 4.24039 | -76.83840 | 32899 ft | 442 kts | 148° |
| 2026-04-23 22:49 | 4.18760 | -76.80671 | 32901 ft | 442 kts | 148° |
| 2026-04-23 22:49 | 4.13485 | -76.77490 | 32930 ft | 442 kts | 148° |
| 2026-04-23 22:50 | 4.08207 | -76.74314 | 32932 ft | 442 kts | 148° |
| 2026-04-23 22:50 | 4.02917 | -76.71140 | 32934 ft | 444 kts | 148° |
| 2026-04-23 22:51 | 3.97622 | -76.67964 | 32940 ft | 444 kts | 148° |
| 2026-04-23 22:51 | 3.92324 | -76.64785 | 32953 ft | 444 kts | 148° |
| 2026-04-23 22:52 | 3.87020 | -76.61601 | 32950 ft | 444 kts | 148° |
| 2026-04-23 22:52 | 3.81717 | -76.58420 | 32954 ft | 444 kts | 148° |
| 2026-04-23 22:53 | 3.76420 | -76.55241 | 32953 ft | 444 kts | 148° |
| 2026-04-23 22:53 | 3.71151 | -76.52080 | 32956 ft | 444 kts | 148° |
| 2026-04-23 22:54 | 3.65853 | -76.48903 | 32964 ft | 445 kts | 148° |
| 2026-04-23 22:54 | 3.60530 | -76.45711 | 32965 ft | 446 kts | 148° |
| 2026-04-23 22:55 | 3.55204 | -76.42517 | 32966 ft | 446 kts | 148° |
| 2026-04-23 22:55 | 3.49874 | -76.39324 | 32965 ft | 446 kts | 148° |
| 2026-04-23 22:56 | 3.44551 | -76.36131 | 32958 ft | 446 kts | 148° |
| 2026-04-23 22:56 | 3.39223 | -76.32939 | 32994 ft | 446 kts | 148° |
| 2026-04-23 22:57 | 3.33896 | -76.29748 | 32995 ft | 446 kts | 148° |
| 2026-04-23 22:57 | 3.28569 | -76.26558 | 32994 ft | 445 kts | 148° |
| 2026-04-23 22:58 | 3.23252 | -76.23371 | 33004 ft | 446 kts | 148° |
| 2026-04-23 22:58 | 3.17934 | -76.20184 | 33052 ft | 446 kts | 148° |
| 2026-04-23 22:59 | 3.12613 | -76.16997 | 33056 ft | 446 kts | 148° |
| 2026-04-23 22:59 | 3.07294 | -76.13814 | 33068 ft | 446 kts | 148° |
| 2026-04-23 23:00 | 3.01946 | -76.10611 | 33064 ft | 449 kts | 148° |
| 2026-04-23 23:00 | 2.96582 | -76.07399 | 33068 ft | 449 kts | 148° |
| 2026-04-23 23:01 | 2.91209 | -76.04183 | 33090 ft | 451 kts | 148° |
| 2026-04-23 23:01 | 2.85831 | -76.00963 | 32824 ft | 450 kts | 148° |
| 2026-04-23 23:01 | 2.83148 | -75.99356 | 32495 ft | 448 kts | 148° |
| 2026-04-23 23:02 | 2.80476 | -75.97755 | 32239 ft | 448 kts | 148° |
| 2026-04-23 23:02 | 2.75118 | -75.94550 | 32357 ft | 449 kts | 148° |
| 2026-04-23 23:02 | 2.72438 | -75.92947 | 32470 ft | 449 kts | 148° |
| 2026-04-23 23:03 | 2.69748 | -75.91338 | 32556 ft | 450 kts | 148° |
| 2026-04-23 23:03 | 2.67063 | -75.89732 | 32686 ft | 450 kts | 148° |
| 2026-04-23 23:03 | 2.64371 | -75.88121 | 32774 ft | 451 kts | 148° |
| 2026-04-23 23:03 | 2.61678 | -75.86508 | 32908 ft | 452 kts | 148° |
| 2026-04-23 23:04 | 2.58982 | -75.84895 | 33003 ft | 452 kts | 148° |
| 2026-04-23 23:04 | 2.53597 | -75.81676 | 33007 ft | 451 kts | 148° |
| 2026-04-23 23:05 | 2.48217 | -75.78458 | 32965 ft | 451 kts | 148° |
| 2026-04-23 23:05 | 2.42833 | -75.75236 | 32947 ft | 451 kts | 148° |
| 2026-04-23 23:06 | 2.37443 | -75.72011 | 32947 ft | 451 kts | 148° |
| 2026-04-23 23:06 | 2.32056 | -75.68789 | 32947 ft | 451 kts | 148° |
| 2026-04-23 23:07 | 2.26665 | -75.65570 | 32945 ft | 451 kts | 148° |
| 2026-04-23 23:07 | 2.21281 | -75.62353 | 32959 ft | 450 kts | 148° |
| 2026-04-23 23:08 | 2.15923 | -75.59142 | 32967 ft | 448 kts | 148° |
| 2026-04-23 23:08 | 2.10612 | -75.55962 | 32956 ft | 448 kts | 148° |
| 2026-04-23 23:09 | 2.05261 | -75.52754 | 32955 ft | 448 kts | 148° |
| 2026-04-23 23:09 | 1.99911 | -75.49559 | 32947 ft | 448 kts | 148° |
| 2026-04-23 23:10 | 1.94559 | -75.46358 | 32952 ft | 448 kts | 148° |
| 2026-04-23 23:10 | 1.89209 | -75.43157 | 32916 ft | 448 kts | 148° |
| 2026-04-23 23:11 | 1.83851 | -75.39963 | 32904 ft | 448 kts | 147° |
| 2026-04-23 23:11 | 1.78514 | -75.36775 | 32897 ft | 446 kts | 147° |
| 2026-04-23 23:12 | 1.73188 | -75.33591 | 32878 ft | 446 kts | 147° |
| 2026-04-23 23:12 | 1.67857 | -75.30407 | 32872 ft | 446 kts | 147° |
| 2026-04-23 23:13 | 1.62524 | -75.27225 | 32876 ft | 446 kts | 147° |
| 2026-04-23 23:13 | 1.57189 | -75.24044 | 32870 ft | 446 kts | 147° |
| 2026-04-23 23:14 | 1.51860 | -75.20859 | 32864 ft | 446 kts | 147° |
| 2026-04-23 23:14 | 1.46527 | -75.17674 | 32865 ft | 446 kts | 147° |
| 2026-04-23 23:15 | 1.41216 | -75.14503 | 32864 ft | 444 kts | 147° |
| 2026-04-23 23:15 | 1.35906 | -75.11334 | 32864 ft | 444 kts | 147° |
| 2026-04-23 23:16 | 1.30596 | -75.08164 | 32866 ft | 444 kts | 147° |
| 2026-04-23 23:16 | 1.25324 | -75.05015 | 32861 ft | 445 kts | 147° |
| 2026-04-23 23:17 | 1.20014 | -75.01843 | 32866 ft | 445 kts | 147° |
| 2026-04-23 23:17 | 1.14700 | -74.98670 | 32870 ft | 445 kts | 147° |
| 2026-04-23 23:18 | 1.09388 | -74.95500 | 32865 ft | 445 kts | 147° |
| 2026-04-23 23:18 | 1.04076 | -74.92329 | 32869 ft | 444 kts | 147° |
| 2026-04-23 23:19 | 0.98780 | -74.89167 | 32860 ft | 444 kts | 147° |
| 2026-04-23 23:19 | 0.93476 | -74.86001 | 32864 ft | 444 kts | 147° |
| 2026-04-23 23:20 | 0.88179 | -74.82838 | 32867 ft | 444 kts | 147° |
| 2026-04-23 23:20 | 0.82881 | -74.79675 | 32861 ft | 444 kts | 147° |
| 2026-04-23 23:21 | 0.77582 | -74.76512 | 32869 ft | 444 kts | 147° |
| 2026-04-23 23:21 | 0.72281 | -74.73351 | 32861 ft | 443 kts | 147° |
| 2026-04-23 23:22 | 0.66993 | -74.70195 | 32864 ft | 443 kts | 147° |
| 2026-04-23 23:22 | 0.61706 | -74.67034 | 32868 ft | 443 kts | 147° |
| 2026-04-23 23:23 | 0.56450 | -74.63896 | 32865 ft | 443 kts | 147° |
| 2026-04-23 23:23 | 0.51163 | -74.60742 | 32866 ft | 442 kts | 147° |
| 2026-04-23 23:24 | 0.45881 | -74.57590 | 32862 ft | 442 kts | 147° |
| 2026-04-23 23:24 | 0.40600 | -74.54438 | 32870 ft | 442 kts | 147° |
| 2026-04-23 23:25 | 0.35320 | -74.51289 | 32874 ft | 442 kts | 146° |
| 2026-04-23 23:25 | 0.30045 | -74.48140 | 32869 ft | 441 kts | 146° |
| 2026-04-23 23:26 | 0.24771 | -74.44993 | 32863 ft | 442 kts | 146° |
| 2026-04-23 23:26 | 0.19499 | -74.41847 | 32872 ft | 442 kts | 146° |
| 2026-04-23 23:27 | 0.14225 | -74.38700 | 32865 ft | 441 kts | 146° |
| 2026-04-23 23:27 | 0.08948 | -74.35553 | 32858 ft | 441 kts | 146° |
| 2026-04-23 23:28 | 0.03671 | -74.32403 | 32868 ft | 442 kts | 146° |
| 2026-04-23 23:28 | -0.01613 | -74.29253 | 32868 ft | 442 kts | 146° |
| 2026-04-23 23:29 | -0.06898 | -74.26104 | 32866 ft | 442 kts | 146° |
| 2026-04-23 23:29 | -0.12183 | -74.22951 | 32866 ft | 443 kts | 146° |
| 2026-04-23 23:30 | -0.17473 | -74.19794 | 32873 ft | 443 kts | 146° |
| 2026-04-23 23:30 | -0.21866 | -74.17173 | 32869 ft | 443 kts | 146° |
| 2026-04-23 23:31 | -0.27158 | -74.14015 | 32863 ft | 443 kts | 146° |
| 2026-04-23 23:31 | -0.32444 | -74.10860 | 32864 ft | 443 kts | 146° |
| 2026-04-23 23:32 | -0.37734 | -74.07703 | 32861 ft | 443 kts | 146° |
| 2026-04-23 23:32 | -0.43023 | -74.04548 | 32870 ft | 443 kts | 146° |
| 2026-04-23 23:33 | -0.48311 | -74.01391 | 32876 ft | 443 kts | 146° |
| 2026-04-23 23:33 | -0.53599 | -73.98234 | 32874 ft | 443 kts | 146° |
| 2026-04-23 23:34 | -0.58894 | -73.95076 | 32872 ft | 443 kts | 146° |
| 2026-04-23 23:34 | -0.64185 | -73.91918 | 32871 ft | 443 kts | 146° |
| 2026-04-23 23:35 | -0.69444 | -73.88780 | 32874 ft | 443 kts | 146° |
| 2026-04-23 23:35 | -0.74735 | -73.85622 | 32871 ft | 443 kts | 146° |
| 2026-04-23 23:36 | -0.80018 | -73.82468 | 32875 ft | 442 kts | 146° |
| 2026-04-23 23:36 | -0.85294 | -73.79319 | 32874 ft | 442 kts | 146° |
| 2026-04-23 23:37 | -0.90571 | -73.76170 | 32879 ft | 442 kts | 146° |
| 2026-04-23 23:37 | -0.95845 | -73.73024 | 32869 ft | 442 kts | 146° |
| 2026-04-23 23:38 | -1.01118 | -73.69873 | 32876 ft | 441 kts | 146° |
| 2026-04-23 23:38 | -1.06393 | -73.66724 | 32877 ft | 441 kts | 146° |
| 2026-04-23 23:39 | -1.11666 | -73.63581 | 32877 ft | 441 kts | 147° |
| 2026-04-23 23:39 | -1.17362 | -73.61233 | 32882 ft | 445 kts | 158° |
| 2026-04-23 23:40 | -1.23252 | -73.59293 | 32880 ft | 446 kts | 158° |
| 2026-04-23 23:40 | -1.29131 | -73.57340 | 32881 ft | 445 kts | 158° |
| 2026-04-23 23:41 | -1.35002 | -73.55377 | 32878 ft | 445 kts | 158° |
| 2026-04-23 23:41 | -1.40830 | -73.53427 | 32878 ft | 445 kts | 158° |
| 2026-04-23 23:42 | -1.46698 | -73.51462 | 32886 ft | 445 kts | 158° |
| 2026-04-23 23:42 | -1.52585 | -73.49493 | 32890 ft | 447 kts | 158° |
| 2026-04-23 23:43 | -1.58480 | -73.47522 | 32884 ft | 447 kts | 158° |
| 2026-04-23 23:43 | -1.64375 | -73.45549 | 32885 ft | 447 kts | 158° |
| 2026-04-23 23:44 | -1.70271 | -73.43575 | 32888 ft | 447 kts | 158° |
| 2026-04-23 23:44 | -1.76167 | -73.41600 | 32891 ft | 447 kts | 158° |
| 2026-04-23 23:45 | -1.82064 | -73.39628 | 32894 ft | 447 kts | 158° |
| 2026-04-23 23:45 | -1.87954 | -73.37657 | 32892 ft | 446 kts | 158° |
| 2026-04-23 23:46 | -1.93841 | -73.35686 | 32886 ft | 446 kts | 158° |
| 2026-04-23 23:46 | -1.99724 | -73.33715 | 32887 ft | 446 kts | 158° |
| 2026-04-23 23:47 | -2.05613 | -73.31743 | 32891 ft | 446 kts | 158° |
| 2026-04-23 23:47 | -2.11497 | -73.29773 | 32892 ft | 446 kts | 158° |
| 2026-04-23 23:48 | -2.17346 | -73.27812 | 32894 ft | 446 kts | 158° |
| 2026-04-23 23:48 | -2.23224 | -73.25846 | 32896 ft | 444 kts | 158° |
| 2026-04-23 23:49 | -2.31996 | -73.22907 | 32894 ft | 443 kts | 158° |
| 2026-04-23 23:49 | -2.37841 | -73.20947 | 32892 ft | 443 kts | 158° |
| 2026-04-23 23:50 | -2.43689 | -73.18988 | 32894 ft | 443 kts | 158° |
| 2026-04-23 23:50 | -2.49535 | -73.17031 | 32898 ft | 443 kts | 158° |
| 2026-04-23 23:51 | -2.55385 | -73.15072 | 32900 ft | 443 kts | 158° |
| 2026-04-23 23:51 | -2.61216 | -73.13118 | 32900 ft | 441 kts | 158° |
| 2026-04-23 23:52 | -2.67039 | -73.11167 | 32899 ft | 441 kts | 158° |
| 2026-04-23 23:52 | -2.72862 | -73.09215 | 32899 ft | 441 kts | 158° |
| 2026-04-23 23:53 | -2.78681 | -73.07263 | 32901 ft | 441 kts | 158° |
| 2026-04-23 23:53 | -2.84497 | -73.05314 | 32900 ft | 441 kts | 158° |
| 2026-04-23 23:54 | -2.90311 | -73.03364 | 32907 ft | 441 kts | 158° |
| 2026-04-23 23:54 | -2.95880 | -73.01014 | 32897 ft | 434 kts | 144° |
| 2026-04-23 23:55 | -3.00803 | -72.97530 | 32912 ft | 433 kts | 141° |
| 2026-04-23 23:55 | -3.05682 | -72.93993 | 32908 ft | 433 kts | 141° |
| 2026-04-23 23:56 | -3.10569 | -72.90484 | 32898 ft | 432 kts | 141° |
| 2026-04-23 23:56 | -3.15458 | -72.86984 | 32904 ft | 432 kts | 141° |
| 2026-04-23 23:57 | -3.20350 | -72.83483 | 32902 ft | 432 kts | 141° |
| 2026-04-23 23:57 | -3.25245 | -72.79979 | 32898 ft | 432 kts | 141° |
| 2026-04-23 23:58 | -3.30133 | -72.76475 | 32899 ft | 432 kts | 141° |
| 2026-04-23 23:58 | -3.35027 | -72.72967 | 32901 ft | 433 kts | 141° |
| 2026-04-23 23:59 | -3.39922 | -72.69460 | 32902 ft | 433 kts | 141° |
| 2026-04-23 23:59 | -3.44819 | -72.65951 | 32899 ft | 433 kts | 141° |
| 2026-04-24 00:00 | -3.49715 | -72.62443 | 32898 ft | 433 kts | 141° |
| 2026-04-24 00:00 | -3.54608 | -72.58936 | 32901 ft | 432 kts | 141° |
| 2026-04-24 00:01 | -3.59462 | -72.55456 | 32896 ft | 432 kts | 141° |
| 2026-04-24 00:01 | -3.64353 | -72.51952 | 32891 ft | 432 kts | 141° |
| 2026-04-24 00:02 | -3.69255 | -72.48437 | 32889 ft | 434 kts | 141° |
| 2026-04-24 00:02 | -3.74168 | -72.44911 | 32886 ft | 435 kts | 141° |
| 2026-04-24 00:03 | -3.79089 | -72.41381 | 32887 ft | 435 kts | 141° |
| 2026-04-24 00:03 | -3.84008 | -72.37852 | 32887 ft | 435 kts | 141° |
| 2026-04-24 00:04 | -3.88925 | -72.34325 | 32892 ft | 435 kts | 141° |
| 2026-04-24 00:04 | -3.93844 | -72.30797 | 32892 ft | 435 kts | 141° |
| 2026-04-24 00:05 | -3.98764 | -72.27265 | 32883 ft | 435 kts | 141° |
| 2026-04-24 00:05 | -4.03677 | -72.23738 | 32884 ft | 433 kts | 141° |
| 2026-04-24 00:06 | -4.08575 | -72.20223 | 32886 ft | 433 kts | 141° |
| 2026-04-24 00:06 | -4.13470 | -72.16705 | 32887 ft | 433 kts | 141° |
| 2026-04-24 00:07 | -4.18366 | -72.13191 | 32886 ft | 433 kts | 141° |
| 2026-04-24 00:07 | -4.23259 | -72.09680 | 32889 ft | 433 kts | 141° |
| 2026-04-24 00:08 | -4.28151 | -72.06167 | 32895 ft | 433 kts | 141° |
| 2026-04-24 00:08 | -4.33046 | -72.02653 | 32890 ft | 433 kts | 141° |
| 2026-04-24 00:09 | -4.37917 | -71.99151 | 32890 ft | 436 kts | 141° |
| 2026-04-24 00:09 | -4.42848 | -71.95608 | 32890 ft | 437 kts | 141° |
| 2026-04-24 00:10 | -4.47786 | -71.92060 | 32888 ft | 437 kts | 141° |
| 2026-04-24 00:10 | -4.52721 | -71.88511 | 32893 ft | 436 kts | 141° |
| 2026-04-24 00:11 | -4.57643 | -71.84958 | 32897 ft | 436 kts | 141° |
| 2026-04-24 00:11 | -4.62571 | -71.81403 | 32888 ft | 436 kts | 141° |
| 2026-04-24 00:12 | -4.67498 | -71.77849 | 32896 ft | 436 kts | 141° |
| 2026-04-24 00:12 | -4.72423 | -71.74294 | 32899 ft | 437 kts | 141° |
| 2026-04-24 00:13 | -4.77365 | -71.70726 | 32896 ft | 438 kts | 141° |
| 2026-04-24 00:13 | -4.82314 | -71.67152 | 32901 ft | 438 kts | 141° |
| 2026-04-24 00:14 | -4.87262 | -71.63582 | 32898 ft | 438 kts | 141° |
| 2026-04-24 00:14 | -4.92209 | -71.60008 | 32902 ft | 438 kts | 141° |
| 2026-04-24 00:15 | -4.97156 | -71.56435 | 32903 ft | 438 kts | 141° |
| 2026-04-24 00:15 | -5.02104 | -71.52860 | 32902 ft | 438 kts | 141° |
| 2026-04-24 00:16 | -5.07051 | -71.49285 | 32910 ft | 438 kts | 141° |
| 2026-04-24 00:16 | -5.11941 | -71.45750 | 32906 ft | 436 kts | 141° |
| 2026-04-24 00:17 | -5.16898 | -71.42168 | 32905 ft | 436 kts | 141° |
| 2026-04-24 00:17 | -5.21816 | -71.38610 | 32911 ft | 436 kts | 141° |
| 2026-04-24 00:18 | -5.26736 | -71.35050 | 32910 ft | 436 kts | 141° |
| 2026-04-24 00:18 | -5.31625 | -71.31516 | 32916 ft | 436 kts | 141° |
| 2026-04-24 00:19 | -5.36544 | -71.27955 | 32918 ft | 436 kts | 141° |
| 2026-04-24 00:19 | -5.41462 | -71.24397 | 32912 ft | 436 kts | 141° |
| 2026-04-24 00:20 | -5.46395 | -71.20828 | 32915 ft | 437 kts | 142° |
| 2026-04-24 00:20 | -5.51331 | -71.17254 | 32923 ft | 437 kts | 142° |
| 2026-04-24 00:21 | -5.56265 | -71.13681 | 32920 ft | 437 kts | 142° |
| 2026-04-24 00:21 | -5.61197 | -71.10109 | 32919 ft | 437 kts | 142° |
| 2026-04-24 00:22 | -5.66130 | -71.06534 | 32923 ft | 437 kts | 142° |
| 2026-04-24 00:22 | -5.70231 | -71.03559 | 32928 ft | 437 kts | 142° |
| 2026-04-24 00:23 | -5.75166 | -70.99983 | 32922 ft | 437 kts | 142° |
| 2026-04-24 00:23 | -5.80102 | -70.96407 | 32931 ft | 438 kts | 142° |
| 2026-04-24 00:24 | -5.85048 | -70.92822 | 32925 ft | 438 kts | 142° |
| 2026-04-24 00:24 | -5.89992 | -70.89234 | 32931 ft | 438 kts | 142° |
| 2026-04-24 00:25 | -5.94937 | -70.85645 | 32932 ft | 439 kts | 142° |
| 2026-04-24 00:25 | -5.99889 | -70.82051 | 32933 ft | 439 kts | 142° |
| 2026-04-24 00:26 | -6.04840 | -70.78457 | 32940 ft | 439 kts | 142° |
| 2026-04-24 00:26 | -6.09790 | -70.74862 | 32939 ft | 439 kts | 142° |
| 2026-04-24 00:27 | -6.14750 | -70.71259 | 32937 ft | 441 kts | 142° |
| 2026-04-24 00:27 | -6.19719 | -70.67649 | 32945 ft | 441 kts | 142° |
| 2026-04-24 00:28 | -6.24691 | -70.64035 | 32943 ft | 441 kts | 142° |
| 2026-04-24 00:28 | -6.29661 | -70.60420 | 32940 ft | 441 kts | 142° |
| 2026-04-24 00:29 | -6.34629 | -70.56805 | 32943 ft | 441 kts | 142° |
| 2026-04-24 00:29 | -6.39605 | -70.53196 | 32941 ft | 441 kts | 142° |
| 2026-04-24 00:30 | -6.44542 | -70.49607 | 32947 ft | 441 kts | 142° |
| 2026-04-24 00:30 | -6.49513 | -70.45992 | 32950 ft | 441 kts | 142° |
| 2026-04-24 00:31 | -6.54491 | -70.42377 | 32953 ft | 441 kts | 142° |
| 2026-04-24 00:31 | -6.59464 | -70.38767 | 32953 ft | 441 kts | 142° |
| 2026-04-24 00:32 | -6.64434 | -70.35145 | 32956 ft | 441 kts | 142° |
| 2026-04-24 00:32 | -6.69401 | -70.31525 | 32956 ft | 441 kts | 142° |
| 2026-04-24 00:33 | -6.74372 | -70.27906 | 32956 ft | 441 kts | 142° |
| 2026-04-24 00:33 | -6.79349 | -70.24288 | 32956 ft | 441 kts | 142° |
| 2026-04-24 00:34 | -6.84316 | -70.20670 | 32956 ft | 441 kts | 142° |
| 2026-04-24 00:34 | -6.89275 | -70.17055 | 32959 ft | 439 kts | 142° |
| 2026-04-24 00:35 | -6.94223 | -70.13445 | 32959 ft | 439 kts | 142° |
| 2026-04-24 00:35 | -6.99175 | -70.09837 | 32959 ft | 439 kts | 142° |
| 2026-04-24 00:36 | -7.04122 | -70.06227 | 32965 ft | 439 kts | 142° |
| 2026-04-24 00:36 | -7.09072 | -70.02613 | 32965 ft | 439 kts | 142° |
| 2026-04-24 00:37 | -7.14019 | -69.99000 | 32962 ft | 439 kts | 142° |
| 2026-04-24 00:37 | -7.18974 | -69.95381 | 32961 ft | 441 kts | 142° |
| 2026-04-24 00:38 | -7.23942 | -69.91755 | 32965 ft | 441 kts | 142° |
| 2026-04-24 00:38 | -7.28908 | -69.88126 | 32964 ft | 441 kts | 142° |
| 2026-04-24 00:39 | -7.33876 | -69.84495 | 32962 ft | 442 kts | 142° |
| 2026-04-24 00:39 | -7.38821 | -69.80884 | 32966 ft | 442 kts | 142° |
| 2026-04-24 00:40 | -7.43800 | -69.77241 | 32968 ft | 442 kts | 142° |
| 2026-04-24 00:40 | -7.48784 | -69.73598 | 32967 ft | 442 kts | 142° |
| 2026-04-24 00:41 | -7.53763 | -69.69958 | 32963 ft | 442 kts | 142° |
| 2026-04-24 00:41 | -7.58744 | -69.66313 | 32966 ft | 442 kts | 142° |
| 2026-04-24 00:42 | -7.63722 | -69.62668 | 32967 ft | 442 kts | 142° |
| 2026-04-24 00:42 | -7.68702 | -69.59021 | 32968 ft | 442 kts | 142° |
| 2026-04-24 00:43 | -7.73681 | -69.55374 | 32969 ft | 442 kts | 142° |
| 2026-04-24 00:43 | -7.78659 | -69.51725 | 32967 ft | 443 kts | 142° |
| 2026-04-24 00:44 | -7.83654 | -69.48060 | 32971 ft | 445 kts | 142° |
| 2026-04-24 00:44 | -7.88666 | -69.44388 | 32972 ft | 445 kts | 142° |
| 2026-04-24 00:45 | -7.93672 | -69.40714 | 32969 ft | 445 kts | 142° |
| 2026-04-24 00:45 | -7.98680 | -69.37041 | 32968 ft | 445 kts | 142° |
| 2026-04-24 00:46 | -8.03657 | -69.33391 | 32965 ft | 445 kts | 142° |
| 2026-04-24 00:46 | -8.08662 | -69.29718 | 32964 ft | 445 kts | 142° |
| 2026-04-24 00:47 | -8.13671 | -69.26041 | 32969 ft | 445 kts | 142° |
| 2026-04-24 00:47 | -8.18672 | -69.22370 | 32967 ft | 443 kts | 142° |
| 2026-04-24 00:48 | -8.23645 | -69.18716 | 32964 ft | 442 kts | 142° |
| 2026-04-24 00:48 | -8.28597 | -69.15077 | 32969 ft | 440 kts | 142° |
| 2026-04-24 00:49 | -8.33542 | -69.11441 | 32964 ft | 440 kts | 142° |
| 2026-04-24 00:49 | -8.38489 | -69.07805 | 32961 ft | 440 kts | 142° |
| 2026-04-24 00:50 | -8.43434 | -69.04170 | 32964 ft | 440 kts | 142° |
| 2026-04-24 00:50 | -8.48379 | -69.00531 | 32965 ft | 440 kts | 142° |
| 2026-04-24 00:51 | -8.53329 | -68.96887 | 32964 ft | 442 kts | 142° |
| 2026-04-24 00:51 | -8.58297 | -68.93229 | 32965 ft | 442 kts | 142° |
| 2026-04-24 00:52 | -8.63267 | -68.89571 | 32967 ft | 442 kts | 142° |
| 2026-04-24 00:52 | -8.68201 | -68.85940 | 32961 ft | 442 kts | 142° |
| 2026-04-24 00:53 | -8.73168 | -68.82275 | 32964 ft | 442 kts | 142° |
| 2026-04-24 00:53 | -8.78138 | -68.78608 | 32965 ft | 442 kts | 142° |
| 2026-04-24 00:54 | -8.83113 | -68.74942 | 32962 ft | 442 kts | 142° |
| 2026-04-24 00:54 | -8.88082 | -68.71276 | 32962 ft | 442 kts | 142° |
| 2026-04-24 00:55 | -8.93046 | -68.67612 | 32965 ft | 442 kts | 142° |
| 2026-04-24 00:55 | -8.98013 | -68.63946 | 32964 ft | 442 kts | 142° |
| 2026-04-24 00:56 | -9.02977 | -68.60279 | 32964 ft | 442 kts | 142° |
| 2026-04-24 00:56 | -9.07945 | -68.56611 | 32965 ft | 442 kts | 142° |
| 2026-04-24 00:57 | -9.12908 | -68.52941 | 32964 ft | 442 kts | 142° |
| 2026-04-24 00:58 | -9.20353 | -68.47432 | 32965 ft | 443 kts | 141° |
| 2026-04-24 00:58 | -9.25298 | -68.43778 | 32965 ft | 443 kts | 141° |
| 2026-04-24 00:59 | -9.30274 | -68.40097 | 32967 ft | 443 kts | 141° |
| 2026-04-24 00:59 | -9.35260 | -68.36407 | 33183 ft | 444 kts | 141° |
| 2026-04-24 00:59 | -9.37725 | -68.34528 | 33432 ft | 442 kts | 138° |
| 2026-04-24 01:00 | -9.40061 | -68.32508 | 33663 ft | 441 kts | 137° |
| 2026-04-24 01:00 | -9.42377 | -68.30468 | 33887 ft | 441 kts | 136° |
| 2026-04-24 01:00 | -9.44687 | -68.28427 | 34072 ft | 441 kts | 136° |
| 2026-04-24 01:00 | -9.47001 | -68.26385 | 34224 ft | 442 kts | 136° |
| 2026-04-24 01:01 | -9.49321 | -68.24341 | 34365 ft | 442 kts | 137° |
| 2026-04-24 01:01 | -9.51647 | -68.22295 | 34497 ft | 443 kts | 137° |
| 2026-04-24 01:01 | -9.53974 | -68.20245 | 34629 ft | 444 kts | 137° |
| 2026-04-24 01:01 | -9.56307 | -68.18188 | 34758 ft | 445 kts | 136° |
| 2026-04-24 01:02 | -9.58639 | -68.16132 | 34889 ft | 445 kts | 136° |
| 2026-04-24 01:02 | -9.63323 | -68.12004 | 34995 ft | 446 kts | 136° |
| 2026-04-24 01:03 | -9.68010 | -68.07872 | 34971 ft | 446 kts | 136° |
| 2026-04-24 01:03 | -9.72663 | -68.03767 | 34965 ft | 446 kts | 136° |
| 2026-04-24 01:04 | -9.77345 | -67.99635 | 34968 ft | 446 kts | 136° |
| 2026-04-24 01:04 | -9.82027 | -67.95499 | 34968 ft | 446 kts | 136° |
| 2026-04-24 01:05 | -9.86696 | -67.91388 | 34965 ft | 444 kts | 138° |
| 2026-04-24 01:05 | -9.91869 | -67.87934 | 34965 ft | 447 kts | 147° |
| 2026-04-24 01:06 | -9.97212 | -67.84708 | 34962 ft | 447 kts | 147° |
| 2026-04-24 01:06 | -10.02545 | -67.81467 | 34965 ft | 447 kts | 146° |
| 2026-04-24 01:07 | -10.07881 | -67.78215 | 34966 ft | 447 kts | 146° |
| 2026-04-24 01:07 | -10.13215 | -67.74960 | 34967 ft | 447 kts | 146° |
| 2026-04-24 01:08 | -10.18548 | -67.71708 | 34967 ft | 448 kts | 147° |
| 2026-04-24 01:08 | -10.23901 | -67.68442 | 34964 ft | 448 kts | 147° |
| 2026-04-24 01:09 | -10.29245 | -67.65178 | 34965 ft | 448 kts | 147° |
| 2026-04-24 01:09 | -10.34583 | -67.61917 | 34967 ft | 448 kts | 147° |
| 2026-04-24 01:10 | -10.39926 | -67.58652 | 34972 ft | 448 kts | 147° |
| 2026-04-24 01:10 | -10.45265 | -67.55389 | 34970 ft | 448 kts | 147° |
| 2026-04-24 01:11 | -10.50617 | -67.52122 | 34967 ft | 450 kts | 147° |
| 2026-04-24 01:11 | -10.56042 | -67.48917 | 34971 ft | 451 kts | 148° |
| 2026-04-24 01:12 | -10.61425 | -67.45737 | 34970 ft | 451 kts | 148° |
| 2026-04-24 01:12 | -10.66841 | -67.42525 | 34971 ft | 451 kts | 148° |
| 2026-04-24 01:13 | -10.72254 | -67.39312 | 34974 ft | 451 kts | 148° |
| 2026-04-24 01:13 | -10.77670 | -67.36098 | 34974 ft | 451 kts | 148° |
| 2026-04-24 01:14 | -10.82170 | -67.33425 | 34970 ft | 451 kts | 148° |
| 2026-04-24 01:14 | -10.87583 | -67.30208 | 34968 ft | 451 kts | 148° |
| 2026-04-24 01:15 | -10.92993 | -67.26989 | 34973 ft | 451 kts | 147° |
| 2026-04-24 01:15 | -10.98402 | -67.23774 | 34974 ft | 450 kts | 148° |
| 2026-04-24 01:16 | -11.03815 | -67.20553 | 34972 ft | 450 kts | 147° |
| 2026-04-24 01:16 | -11.09211 | -67.17342 | 34970 ft | 448 kts | 147° |
| 2026-04-24 01:17 | -11.14593 | -67.14139 | 34970 ft | 448 kts | 147° |
| 2026-04-24 01:17 | -11.19964 | -67.10938 | 34971 ft | 447 kts | 147° |
| 2026-04-24 01:18 | -11.25345 | -67.07732 | 34973 ft | 448 kts | 147° |
| 2026-04-24 01:18 | -11.30729 | -67.04524 | 34973 ft | 448 kts | 147° |
| 2026-04-24 01:19 | -11.36116 | -67.01309 | 34974 ft | 448 kts | 147° |
| 2026-04-24 01:19 | -11.41499 | -66.98096 | 34977 ft | 448 kts | 147° |
| 2026-04-24 01:20 | -11.46882 | -66.94884 | 34976 ft | 448 kts | 147° |
| 2026-04-24 01:20 | -11.52264 | -66.91666 | 34976 ft | 448 kts | 147° |
| 2026-04-24 01:21 | -11.57647 | -66.88448 | 34972 ft | 448 kts | 147° |
| 2026-04-24 01:21 | -11.63024 | -66.85234 | 34973 ft | 448 kts | 147° |
| 2026-04-24 01:22 | -11.68399 | -66.82018 | 34973 ft | 448 kts | 147° |
| 2026-04-24 01:22 | -11.73738 | -66.78823 | 34973 ft | 448 kts | 147° |
| 2026-04-24 01:23 | -11.79113 | -66.75606 | 34973 ft | 448 kts | 147° |
| 2026-04-24 01:23 | -11.84495 | -66.72383 | 34973 ft | 449 kts | 147° |
| 2026-04-24 01:24 | -11.89915 | -66.69135 | 34973 ft | 449 kts | 147° |
| 2026-04-24 01:24 | -11.95264 | -66.65929 | 34973 ft | 448 kts | 147° |
| 2026-04-24 01:25 | -12.00641 | -66.62705 | 34977 ft | 448 kts | 147° |
| 2026-04-24 01:25 | -12.06016 | -66.59479 | 34977 ft | 448 kts | 147° |
| 2026-04-24 01:26 | -12.11389 | -66.56253 | 34975 ft | 448 kts | 147° |
| 2026-04-24 01:26 | -12.16759 | -66.53028 | 34977 ft | 447 kts | 147° |
| 2026-04-24 01:27 | -12.22127 | -66.49806 | 34973 ft | 447 kts | 147° |
| 2026-04-24 01:27 | -12.27492 | -66.46578 | 34974 ft | 447 kts | 147° |
| 2026-04-24 01:28 | -12.32854 | -66.43356 | 34976 ft | 447 kts | 147° |
| 2026-04-24 01:28 | -12.38220 | -66.40124 | 34977 ft | 447 kts | 147° |
| 2026-04-24 01:29 | -12.43592 | -66.36890 | 34975 ft | 450 kts | 147° |
| 2026-04-24 01:29 | -12.48996 | -66.33637 | 34977 ft | 451 kts | 147° |
| 2026-04-24 01:30 | -12.54407 | -66.30378 | 34977 ft | 451 kts | 147° |
| 2026-04-24 01:30 | -12.59811 | -66.27114 | 34979 ft | 451 kts | 147° |
| 2026-04-24 01:31 | -12.65215 | -66.23856 | 34981 ft | 451 kts | 148° |
| 2026-04-24 01:31 | -12.70609 | -66.20599 | 34979 ft | 450 kts | 147° |
| 2026-04-24 01:32 | -12.76008 | -66.17343 | 34982 ft | 450 kts | 148° |
| 2026-04-24 01:32 | -12.81406 | -66.14082 | 34983 ft | 451 kts | 148° |
| 2026-04-24 01:33 | -12.86807 | -66.10816 | 34980 ft | 451 kts | 148° |
| 2026-04-24 01:33 | -12.92206 | -66.07550 | 34982 ft | 451 kts | 148° |
| 2026-04-24 01:34 | -12.97573 | -66.04303 | 34978 ft | 451 kts | 148° |
| 2026-04-24 01:34 | -13.02973 | -66.01036 | 34979 ft | 451 kts | 148° |
| 2026-04-24 01:35 | -13.08378 | -65.97762 | 34980 ft | 452 kts | 148° |
| 2026-04-24 01:35 | -13.13789 | -65.94484 | 34982 ft | 452 kts | 148° |
| 2026-04-24 01:36 | -13.19200 | -65.91201 | 34984 ft | 451 kts | 148° |
| 2026-04-24 01:36 | -13.24583 | -65.87935 | 34982 ft | 449 kts | 148° |
| 2026-04-24 01:37 | -13.29965 | -65.84669 | 34984 ft | 449 kts | 148° |
| 2026-04-24 01:37 | -13.35348 | -65.81399 | 34984 ft | 450 kts | 148° |
| 2026-04-24 01:38 | -13.40743 | -65.78123 | 34985 ft | 451 kts | 148° |
| 2026-04-24 01:38 | -13.46135 | -65.74845 | 34988 ft | 451 kts | 148° |
| 2026-04-24 01:39 | -13.51533 | -65.71561 | 34988 ft | 451 kts | 148° |
| 2026-04-24 01:39 | -13.56930 | -65.68277 | 34990 ft | 451 kts | 148° |
| 2026-04-24 01:40 | -13.62326 | -65.64990 | 34991 ft | 451 kts | 148° |
| 2026-04-24 01:40 | -13.67717 | -65.61707 | 34993 ft | 450 kts | 148° |
| 2026-04-24 01:41 | -13.73114 | -65.58420 | 34990 ft | 451 kts | 148° |
| 2026-04-24 01:41 | -13.78508 | -65.55130 | 34988 ft | 451 kts | 148° |
| 2026-04-24 01:42 | -13.83903 | -65.51836 | 34992 ft | 451 kts | 148° |
| 2026-04-24 01:42 | -13.89296 | -65.48545 | 34992 ft | 451 kts | 148° |
| 2026-04-24 01:43 | -13.94689 | -65.45251 | 34993 ft | 451 kts | 148° |
| 2026-04-24 01:43 | -14.00078 | -65.41957 | 34995 ft | 451 kts | 148° |
| 2026-04-24 01:44 | -14.05469 | -65.38660 | 34995 ft | 451 kts | 148° |
| 2026-04-24 01:44 | -14.10872 | -65.35378 | 34994 ft | 451 kts | 148° |
| 2026-04-24 01:45 | -14.16260 | -65.32159 | 34997 ft | 451 kts | 148° |
| 2026-04-24 01:45 | -14.21682 | -65.28908 | 34995 ft | 451 kts | 148° |
| 2026-04-24 01:46 | -14.27094 | -65.25658 | 34996 ft | 450 kts | 148° |
| 2026-04-24 01:46 | -14.32510 | -65.22407 | 35000 ft | 450 kts | 148° |
| 2026-04-24 01:47 | -14.37920 | -65.19156 | 35000 ft | 450 kts | 148° |
| 2026-04-24 01:47 | -14.43327 | -65.15902 | 35000 ft | 450 kts | 148° |
| 2026-04-24 01:48 | -14.48736 | -65.12647 | 35000 ft | 450 kts | 148° |
| 2026-04-24 01:48 | -14.54146 | -65.09390 | 35001 ft | 450 kts | 148° |
| 2026-04-24 01:49 | -14.59549 | -65.06133 | 34999 ft | 449 kts | 148° |
| 2026-04-24 01:49 | -14.64945 | -65.02879 | 35003 ft | 449 kts | 148° |
| 2026-04-24 01:50 | -14.70336 | -64.99625 | 35003 ft | 449 kts | 148° |
| 2026-04-24 01:50 | -14.75729 | -64.96370 | 35001 ft | 449 kts | 148° |
| 2026-04-24 01:51 | -14.81113 | -64.93090 | 35003 ft | 449 kts | 147° |
| 2026-04-24 01:51 | -14.86446 | -64.89732 | 35003 ft | 449 kts | 147° |
| 2026-04-24 01:52 | -14.91778 | -64.86373 | 35003 ft | 447 kts | 147° |
| 2026-04-24 01:52 | -14.97092 | -64.83021 | 35003 ft | 447 kts | 147° |
| 2026-04-24 01:53 | -15.02406 | -64.79671 | 35006 ft | 447 kts | 147° |
| 2026-04-24 01:53 | -15.07715 | -64.76319 | 35006 ft | 447 kts | 147° |
| 2026-04-24 01:54 | -15.13028 | -64.72964 | 35010 ft | 447 kts | 147° |
| 2026-04-24 01:54 | -15.18338 | -64.69612 | 35011 ft | 447 kts | 147° |
| 2026-04-24 01:55 | -15.23653 | -64.66246 | 35012 ft | 448 kts | 147° |
| 2026-04-24 01:55 | -15.28934 | -64.62899 | 35011 ft | 448 kts | 147° |
| 2026-04-24 01:56 | -15.34253 | -64.59528 | 35013 ft | 448 kts | 147° |
| 2026-04-24 01:56 | -15.39575 | -64.56156 | 35012 ft | 448 kts | 147° |
| 2026-04-24 01:57 | -15.44891 | -64.52790 | 35015 ft | 448 kts | 147° |
| 2026-04-24 01:57 | -15.50203 | -64.49419 | 35018 ft | 448 kts | 147° |
| 2026-04-24 01:58 | -15.55539 | -64.46055 | 35018 ft | 449 kts | 147° |
| 2026-04-24 01:58 | -15.60880 | -64.42697 | 35018 ft | 449 kts | 147° |
| 2026-04-24 01:59 | -15.66223 | -64.39338 | 35020 ft | 449 kts | 147° |
| 2026-04-24 01:59 | -15.71561 | -64.35980 | 35023 ft | 448 kts | 147° |
| 2026-04-24 02:00 | -15.76903 | -64.32618 | 35025 ft | 450 kts | 147° |
| 2026-04-24 02:00 | -15.82254 | -64.29241 | 35021 ft | 451 kts | 147° |
| 2026-04-24 02:01 | -15.86707 | -64.26429 | 35033 ft | 451 kts | 147° |
| 2026-04-24 02:01 | -15.92062 | -64.23044 | 35027 ft | 451 kts | 147° |
| 2026-04-24 02:02 | -15.97422 | -64.19659 | 35025 ft | 451 kts | 147° |
| 2026-04-24 02:02 | -16.02782 | -64.16273 | 35023 ft | 451 kts | 147° |
| 2026-04-24 02:03 | -16.10820 | -64.11184 | 35026 ft | 452 kts | 147° |
| 2026-04-24 02:03 | -16.16191 | -64.07783 | 35027 ft | 452 kts | 147° |
| 2026-04-24 02:04 | -16.21564 | -64.04381 | 35023 ft | 452 kts | 147° |
| 2026-04-24 02:04 | -16.26936 | -64.00977 | 35027 ft | 452 kts | 147° |
| 2026-04-24 02:05 | -16.32310 | -63.97564 | 35023 ft | 452 kts | 147° |
| 2026-04-24 02:05 | -16.37683 | -63.94154 | 35019 ft | 452 kts | 147° |
| 2026-04-24 02:06 | -16.43060 | -63.90750 | 35032 ft | 452 kts | 147° |
| 2026-04-24 02:06 | -16.48428 | -63.87342 | 35029 ft | 452 kts | 147° |
| 2026-04-24 02:07 | -16.53764 | -63.83970 | 35028 ft | 452 kts | 147° |
| 2026-04-24 02:07 | -16.59140 | -63.80582 | 35033 ft | 452 kts | 147° |
| 2026-04-24 02:08 | -16.64521 | -63.77186 | 35033 ft | 452 kts | 147° |
| 2026-04-24 02:08 | -16.69894 | -63.73793 | 35030 ft | 451 kts | 147° |
| 2026-04-24 02:09 | -16.75259 | -63.70385 | 35031 ft | 452 kts | 147° |
| 2026-04-24 02:09 | -16.80634 | -63.66981 | 35035 ft | 452 kts | 147° |
| 2026-04-24 02:10 | -16.86011 | -63.63576 | 35024 ft | 452 kts | 147° |
| 2026-04-24 02:10 | -16.91384 | -63.60173 | 35037 ft | 452 kts | 147° |
| 2026-04-24 02:11 | -16.96766 | -63.56768 | 35032 ft | 452 kts | 147° |
| 2026-04-24 02:11 | -17.02139 | -63.53358 | 35158 ft | 452 kts | 147° |
| 2026-04-24 02:12 | -17.04825 | -63.51643 | 35321 ft | 453 kts | 147° |
| 2026-04-24 02:12 | -17.07516 | -63.49928 | 35480 ft | 453 kts | 147° |
| 2026-04-24 02:12 | -17.10210 | -63.48217 | 35634 ft | 454 kts | 147° |
| 2026-04-24 02:12 | -17.12909 | -63.46502 | 35785 ft | 454 kts | 147° |
| 2026-04-24 02:13 | -17.15613 | -63.44780 | 35925 ft | 455 kts | 147° |
| 2026-04-24 02:13 | -17.18318 | -63.43057 | 36059 ft | 456 kts | 147° |
| 2026-04-24 02:13 | -17.23759 | -63.39596 | 36259 ft | 459 kts | 147° |
| 2026-04-24 02:14 | -17.26493 | -63.37856 | 36378 ft | 460 kts | 147° |
| 2026-04-24 02:14 | -17.29230 | -63.36114 | 36501 ft | 461 kts | 147° |
| 2026-04-24 02:14 | -17.31971 | -63.34370 | 36619 ft | 462 kts | 147° |
| 2026-04-24 02:14 | -17.34717 | -63.32621 | 36731 ft | 463 kts | 147° |
| 2026-04-24 02:15 | -17.37468 | -63.30867 | 36848 ft | 463 kts | 147° |
| 2026-04-24 02:15 | -17.40220 | -63.29112 | 36972 ft | 464 kts | 147° |
| 2026-04-24 02:15 | -17.45703 | -63.25613 | 37081 ft | 465 kts | 147° |
| 2026-04-24 02:16 | -17.51216 | -63.22092 | 37057 ft | 464 kts | 147° |
| 2026-04-24 02:16 | -17.56740 | -63.18564 | 37057 ft | 465 kts | 147° |
| 2026-04-24 02:17 | -17.62260 | -63.15026 | 37053 ft | 465 kts | 146° |
| 2026-04-24 02:17 | -17.67638 | -63.11247 | 37051 ft | 467 kts | 144° |
| 2026-04-24 02:18 | -17.73022 | -63.07414 | 37053 ft | 467 kts | 144° |
| 2026-04-24 02:18 | -17.78409 | -63.03581 | 37054 ft | 468 kts | 144° |
| 2026-04-24 02:19 | -17.83790 | -62.99749 | 37055 ft | 468 kts | 144° |
| 2026-04-24 02:19 | -17.89174 | -62.95913 | 37054 ft | 468 kts | 144° |
| 2026-04-24 02:20 | -17.94556 | -62.92078 | 37054 ft | 467 kts | 144° |
| 2026-04-24 02:20 | -17.99940 | -62.88237 | 37054 ft | 467 kts | 144° |
| 2026-04-24 02:21 | -18.05320 | -62.84398 | 37056 ft | 468 kts | 144° |
| 2026-04-24 02:21 | -18.10699 | -62.80553 | 37055 ft | 468 kts | 144° |
| 2026-04-24 02:22 | -18.16086 | -62.76697 | 37062 ft | 468 kts | 144° |
| 2026-04-24 02:22 | -18.21472 | -62.72844 | 37052 ft | 468 kts | 144° |
| 2026-04-24 02:23 | -18.26860 | -62.68986 | 37056 ft | 468 kts | 144° |
| 2026-04-24 02:23 | -18.32244 | -62.65128 | 37057 ft | 468 kts | 144° |
| 2026-04-24 02:24 | -18.37628 | -62.61268 | 37060 ft | 469 kts | 144° |
| 2026-04-24 02:24 | -18.43016 | -62.57398 | 37060 ft | 469 kts | 144° |
| 2026-04-24 02:25 | -18.48403 | -62.53528 | 37059 ft | 469 kts | 144° |
| 2026-04-24 02:25 | -18.53790 | -62.49658 | 37056 ft | 469 kts | 144° |
| 2026-04-24 02:26 | -18.59176 | -62.45779 | 37062 ft | 469 kts | 144° |
| 2026-04-24 02:26 | -18.64563 | -62.41901 | 37061 ft | 469 kts | 144° |
| 2026-04-24 02:27 | -18.69914 | -62.38040 | 37057 ft | 469 kts | 144° |
| 2026-04-24 02:27 | -18.75302 | -62.34160 | 37056 ft | 469 kts | 144° |
| 2026-04-24 02:28 | -18.80716 | -62.30318 | 37059 ft | 469 kts | 144° |
| 2026-04-24 02:28 | -18.86129 | -62.26470 | 37059 ft | 469 kts | 144° |
| 2026-04-24 02:29 | -18.91544 | -62.22612 | 37059 ft | 470 kts | 145° |
| 2026-04-24 02:29 | -18.96954 | -62.18757 | 37059 ft | 469 kts | 144° |
| 2026-04-24 02:30 | -19.02363 | -62.14898 | 37062 ft | 469 kts | 144° |
| 2026-04-24 02:30 | -19.07769 | -62.11040 | 37062 ft | 469 kts | 144° |
| 2026-04-24 02:31 | -19.13175 | -62.07174 | 37064 ft | 469 kts | 144° |
| 2026-04-24 02:31 | -19.18583 | -62.03305 | 37064 ft | 470 kts | 145° |
| 2026-04-24 02:32 | -19.23993 | -61.99433 | 37063 ft | 470 kts | 145° |
| 2026-04-24 02:32 | -19.29403 | -61.95555 | 37062 ft | 470 kts | 145° |
| 2026-04-24 02:33 | -19.34813 | -61.91675 | 37062 ft | 470 kts | 145° |
| 2026-04-24 02:33 | -19.40218 | -61.87796 | 37060 ft | 469 kts | 145° |
| 2026-04-24 02:34 | -19.45586 | -61.83941 | 37064 ft | 469 kts | 145° |
| 2026-04-24 02:34 | -19.50995 | -61.80055 | 37065 ft | 470 kts | 145° |
| 2026-04-24 02:35 | -19.56401 | -61.76167 | 37062 ft | 470 kts | 145° |
| 2026-04-24 02:35 | -19.61805 | -61.72276 | 37062 ft | 470 kts | 145° |
| 2026-04-24 02:36 | -19.67275 | -61.68479 | 37065 ft | 470 kts | 146° |
| 2026-04-24 02:36 | -19.72761 | -61.64714 | 37065 ft | 470 kts | 146° |
| 2026-04-24 02:37 | -19.78249 | -61.60946 | 37065 ft | 469 kts | 146° |
| 2026-04-24 02:37 | -19.83730 | -61.57175 | 37060 ft | 470 kts | 146° |
| 2026-04-24 02:38 | -19.89212 | -61.53398 | 37066 ft | 470 kts | 146° |
| 2026-04-24 02:38 | -19.94693 | -61.49619 | 37066 ft | 470 kts | 146° |
| 2026-04-24 02:39 | -20.00177 | -61.45836 | 37065 ft | 470 kts | 147° |
| 2026-04-24 02:39 | -20.05665 | -61.42047 | 37062 ft | 470 kts | 147° |
| 2026-04-24 02:40 | -20.11155 | -61.38252 | 37063 ft | 471 kts | 146° |
| 2026-04-24 02:40 | -20.16645 | -61.34456 | 37065 ft | 471 kts | 147° |
| 2026-04-24 02:41 | -20.22133 | -61.30655 | 37060 ft | 470 kts | 146° |
| 2026-04-24 02:41 | -20.27616 | -61.26854 | 37060 ft | 471 kts | 147° |
| 2026-04-24 02:42 | -20.33107 | -61.23049 | 37058 ft | 471 kts | 147° |
| 2026-04-24 02:42 | -20.38596 | -61.19236 | 37057 ft | 471 kts | 147° |
| 2026-04-24 02:43 | -20.44080 | -61.15419 | 37057 ft | 471 kts | 147° |
| 2026-04-24 02:43 | -20.49567 | -61.11603 | 37060 ft | 472 kts | 147° |
| 2026-04-24 02:44 | -20.55076 | -61.07772 | 37053 ft | 473 kts | 147° |
| 2026-04-24 02:44 | -20.60579 | -61.03937 | 37056 ft | 472 kts | 147° |
| 2026-04-24 02:45 | -20.66037 | -61.00130 | 37057 ft | 471 kts | 147° |
| 2026-04-24 02:45 | -20.71525 | -60.96299 | 37050 ft | 472 kts | 147° |
| 2026-04-24 02:46 | -20.77028 | -60.92463 | 37054 ft | 474 kts | 147° |
| 2026-04-24 02:46 | -20.82547 | -60.88610 | 37050 ft | 474 kts | 147° |
| 2026-04-24 02:47 | -20.88067 | -60.84749 | 37050 ft | 474 kts | 147° |
| 2026-04-24 02:47 | -20.93584 | -60.80886 | 37050 ft | 474 kts | 147° |
| 2026-04-24 02:48 | -20.99097 | -60.77018 | 37051 ft | 474 kts | 147° |
| 2026-04-24 02:48 | -21.03690 | -60.73799 | 37048 ft | 476 kts | 147° |
| 2026-04-24 02:49 | -21.09176 | -60.69848 | 37048 ft | 475 kts | 144° |
| 2026-04-24 02:49 | -21.14515 | -60.65661 | 37048 ft | 475 kts | 144° |
| 2026-04-24 02:50 | -21.19847 | -60.61465 | 37043 ft | 476 kts | 144° |
| 2026-04-24 02:50 | -21.25180 | -60.57266 | 37044 ft | 476 kts | 144° |
| 2026-04-24 02:51 | -21.30525 | -60.53057 | 37046 ft | 478 kts | 144° |
| 2026-04-24 02:51 | -21.35879 | -60.48831 | 37041 ft | 478 kts | 144° |
| 2026-04-24 02:52 | -21.41232 | -60.44604 | 37044 ft | 478 kts | 144° |
| 2026-04-24 02:52 | -21.46595 | -60.40369 | 37045 ft | 480 kts | 144° |
| 2026-04-24 02:53 | -21.51969 | -60.36121 | 37043 ft | 480 kts | 144° |
| 2026-04-24 02:53 | -21.57362 | -60.31858 | 37041 ft | 481 kts | 144° |
| 2026-04-24 02:54 | -21.62748 | -60.27590 | 37039 ft | 481 kts | 144° |
| 2026-04-24 02:54 | -21.68136 | -60.23321 | 37039 ft | 481 kts | 144° |
| 2026-04-24 02:55 | -21.73513 | -60.19056 | 37038 ft | 481 kts | 144° |
| 2026-04-24 02:55 | -21.78895 | -60.14780 | 37038 ft | 481 kts | 145° |
| 2026-04-24 02:56 | -21.84275 | -60.10504 | 37038 ft | 481 kts | 145° |
| 2026-04-24 02:56 | -21.89618 | -60.06255 | 37038 ft | 481 kts | 145° |
| 2026-04-24 02:57 | -21.94999 | -60.01974 | 37035 ft | 481 kts | 145° |
| 2026-04-24 02:57 | -22.00371 | -59.97689 | 37040 ft | 479 kts | 145° |
| 2026-04-24 02:58 | -22.05738 | -59.93406 | 37036 ft | 481 kts | 145° |
| 2026-04-24 02:58 | -22.11117 | -59.89107 | 37036 ft | 481 kts | 145° |
| 2026-04-24 02:59 | -22.16490 | -59.84814 | 37035 ft | 480 kts | 145° |
| 2026-04-24 02:59 | -22.21840 | -59.80531 | 37033 ft | 479 kts | 145° |
| 2026-04-24 03:00 | -22.27194 | -59.76242 | 37035 ft | 479 kts | 145° |
| 2026-04-24 03:00 | -22.32549 | -59.71949 | 37035 ft | 479 kts | 145° |
| 2026-04-24 03:01 | -22.37901 | -59.67654 | 37033 ft | 479 kts | 145° |
| 2026-04-24 03:01 | -22.43250 | -59.63361 | 37032 ft | 478 kts | 145° |
| 2026-04-24 03:02 | -22.48592 | -59.59072 | 37028 ft | 478 kts | 145° |
| 2026-04-24 03:02 | -22.53940 | -59.54772 | 37033 ft | 479 kts | 145° |
| 2026-04-24 03:03 | -22.59288 | -59.50470 | 37033 ft | 479 kts | 145° |
| 2026-04-24 03:03 | -22.64637 | -59.46163 | 37031 ft | 481 kts | 145° |
| 2026-04-24 03:04 | -22.70016 | -59.41825 | 37030 ft | 482 kts | 145° |
| 2026-04-24 03:04 | -22.75401 | -59.37481 | 37033 ft | 484 kts | 145° |
| 2026-04-24 03:05 | -22.80761 | -59.33151 | 37031 ft | 484 kts | 145° |
| 2026-04-24 03:05 | -22.86157 | -59.28789 | 37029 ft | 483 kts | 145° |
| 2026-04-24 03:06 | -22.91538 | -59.24433 | 37029 ft | 483 kts | 145° |
| 2026-04-24 03:06 | -22.96919 | -59.20071 | 37039 ft | 483 kts | 145° |
| 2026-04-24 03:07 | -23.02310 | -59.15695 | 37031 ft | 484 kts | 145° |
| 2026-04-24 03:07 | -23.07708 | -59.11313 | 37027 ft | 484 kts | 145° |
| 2026-04-24 03:08 | -23.15789 | -59.04745 | 37029 ft | 483 kts | 145° |
| 2026-04-24 03:09 | -23.21156 | -59.00373 | 37026 ft | 482 kts | 146° |
| 2026-04-24 03:09 | -23.26529 | -58.95998 | 37028 ft | 483 kts | 146° |
| 2026-04-24 03:10 | -23.31901 | -58.91612 | 37025 ft | 483 kts | 146° |
| 2026-04-24 03:10 | -23.34583 | -58.89423 | 36912 ft | 479 kts | 146° |
| 2026-04-24 03:10 | -23.37244 | -58.87251 | 36590 ft | 477 kts | 146° |
| 2026-04-24 03:10 | -23.39893 | -58.85087 | 36323 ft | 475 kts | 146° |
| 2026-04-24 03:11 | -23.42530 | -58.82932 | 36073 ft | 473 kts | 146° |
| 2026-04-24 03:11 | -23.45156 | -58.80784 | 35840 ft | 471 kts | 146° |
| 2026-04-24 03:11 | -23.47773 | -58.78641 | 35601 ft | 470 kts | 146° |
| 2026-04-24 03:11 | -23.50382 | -58.76505 | 35365 ft | 468 kts | 146° |
| 2026-04-24 03:12 | -23.52975 | -58.74381 | 35126 ft | 466 kts | 146° |
| 2026-04-24 03:12 | -23.55553 | -58.72267 | 34754 ft | 462 kts | 146° |
| 2026-04-24 03:12 | -23.58113 | -58.70168 | 34268 ft | 459 kts | 146° |
| 2026-04-24 03:12 | -23.60660 | -58.68079 | 33703 ft | 457 kts | 146° |
| 2026-04-24 03:13 | -23.63189 | -58.66001 | 33154 ft | 454 kts | 146° |
| 2026-04-24 03:13 | -23.65708 | -58.63932 | 32617 ft | 452 kts | 146° |
| 2026-04-24 03:13 | -23.68211 | -58.61876 | 32082 ft | 449 kts | 147° |
| 2026-04-24 03:13 | -23.70699 | -58.59833 | 31539 ft | 447 kts | 147° |
| 2026-04-24 03:14 | -23.73181 | -58.57794 | 31002 ft | 445 kts | 147° |
| 2026-04-24 03:14 | -23.75647 | -58.55763 | 30496 ft | 442 kts | 147° |
| 2026-04-24 03:14 | -23.78092 | -58.53750 | 29980 ft | 439 kts | 147° |
| 2026-04-24 03:14 | -23.80528 | -58.51743 | 29372 ft | 437 kts | 147° |
| 2026-04-24 03:15 | -23.82947 | -58.49749 | 28831 ft | 434 kts | 147° |
| 2026-04-24 03:15 | -23.85351 | -58.47771 | 28293 ft | 431 kts | 147° |
| 2026-04-24 03:15 | -23.87742 | -58.45818 | 27802 ft | 427 kts | 146° |
| 2026-04-24 03:15 | -23.90110 | -58.43882 | 27325 ft | 424 kts | 146° |
| 2026-04-24 03:16 | -23.92464 | -58.41957 | 26818 ft | 422 kts | 146° |
| 2026-04-24 03:16 | -23.94811 | -58.40038 | 26310 ft | 420 kts | 146° |
| 2026-04-24 03:16 | -23.97114 | -58.38151 | 25829 ft | 418 kts | 146° |
| 2026-04-24 03:16 | -23.99460 | -58.36226 | 25357 ft | 416 kts | 146° |
| 2026-04-24 03:17 | -24.01769 | -58.34333 | 24879 ft | 414 kts | 146° |
| 2026-04-24 03:17 | -24.04064 | -58.32449 | 24383 ft | 411 kts | 145° |
| 2026-04-24 03:17 | -24.06342 | -58.30578 | 23899 ft | 408 kts | 145° |
| 2026-04-24 03:17 | -24.08610 | -58.28717 | 23382 ft | 406 kts | 145° |
| 2026-04-24 03:18 | -24.10861 | -58.26868 | 22830 ft | 403 kts | 145° |
| 2026-04-24 03:18 | -24.13065 | -58.25055 | 22320 ft | 400 kts | 145° |
| 2026-04-24 03:18 | -24.15278 | -58.23233 | 21802 ft | 397 kts | 145° |
| 2026-04-24 03:18 | -24.17475 | -58.21423 | 21299 ft | 394 kts | 145° |
| 2026-04-24 03:19 | -24.19654 | -58.19629 | 20805 ft | 390 kts | 145° |
| 2026-04-24 03:19 | -24.21811 | -58.17853 | 20352 ft | 386 kts | 145° |
| 2026-04-24 03:19 | -24.23946 | -58.16094 | 19907 ft | 382 kts | 145° |
| 2026-04-24 03:19 | -24.26055 | -58.14355 | 19460 ft | 378 kts | 145° |
| 2026-04-24 03:20 | -24.28144 | -58.12634 | 19015 ft | 374 kts | 145° |
| 2026-04-24 03:20 | -24.30214 | -58.10925 | 18598 ft | 370 kts | 145° |
| 2026-04-24 03:20 | -24.32258 | -58.09237 | 18157 ft | 366 kts | 145° |
| 2026-04-24 03:20 | -24.34284 | -58.07566 | 17692 ft | 362 kts | 145° |
| 2026-04-24 03:21 | -24.36279 | -58.05918 | 17258 ft | 357 kts | 145° |
| 2026-04-24 03:21 | -24.38252 | -58.04289 | 16838 ft | 352 kts | 145° |
| 2026-04-24 03:21 | -24.40195 | -58.02683 | 16444 ft | 347 kts | 144° |
| 2026-04-24 03:21 | -24.42112 | -58.01097 | 16060 ft | 343 kts | 144° |
| 2026-04-24 03:22 | -24.44008 | -57.99528 | 15606 ft | 341 kts | 144° |
| 2026-04-24 03:22 | -24.45894 | -57.97968 | 15158 ft | 338 kts | 144° |
| 2026-04-24 03:22 | -24.47767 | -57.96419 | 14721 ft | 336 kts | 144° |
| 2026-04-24 03:22 | -24.49629 | -57.94880 | 14300 ft | 333 kts | 144° |
| 2026-04-24 03:23 | -24.51523 | -57.93432 | 13885 ft | 331 kts | 147° |
| 2026-04-24 03:23 | -24.53439 | -57.92050 | 13423 ft | 328 kts | 148° |
| 2026-04-24 03:23 | -24.55328 | -57.90694 | 13080 ft | 322 kts | 148° |
| 2026-04-24 03:23 | -24.57189 | -57.89359 | 12681 ft | 318 kts | 147° |
| 2026-04-24 03:24 | -24.59029 | -57.88037 | 12255 ft | 315 kts | 147° |
| 2026-04-24 03:24 | -24.60857 | -57.86722 | 11828 ft | 313 kts | 147° |
| 2026-04-24 03:24 | -24.62676 | -57.85415 | 11399 ft | 311 kts | 147° |
| 2026-04-24 03:24 | -24.64479 | -57.84115 | 10982 ft | 309 kts | 147° |
| 2026-04-24 03:25 | -24.66271 | -57.82821 | 10564 ft | 307 kts | 147° |
| 2026-04-24 03:25 | -24.68050 | -57.81532 | 10173 ft | 305 kts | 146° |
| 2026-04-24 03:25 | -24.69820 | -57.80252 | 9768 ft | 303 kts | 146° |
| 2026-04-24 03:25 | -24.71573 | -57.78983 | 9354 ft | 301 kts | 146° |
| 2026-04-24 03:26 | -24.73304 | -57.77731 | 9026 ft | 295 kts | 146° |
| 2026-04-24 03:26 | -24.75011 | -57.76498 | 8657 ft | 292 kts | 146° |
| 2026-04-24 03:26 | -24.76688 | -57.75286 | 8349 ft | 286 kts | 146° |
| 2026-04-24 03:26 | -24.78345 | -57.74087 | 7999 ft | 283 kts | 146° |
| 2026-04-24 03:27 | -24.79949 | -57.72927 | 7727 ft | 277 kts | 146° |
| 2026-04-24 03:27 | -24.81547 | -57.71769 | 7441 ft | 272 kts | 146° |
| 2026-04-24 03:27 | -24.83117 | -57.70631 | 7136 ft | 268 kts | 146° |
| 2026-04-24 03:27 | -24.84667 | -57.69511 | 6801 ft | 266 kts | 146° |
| 2026-04-24 03:28 | -24.86203 | -57.68407 | 6491 ft | 261 kts | 146° |
| 2026-04-24 03:28 | -24.87713 | -57.67316 | 6137 ft | 258 kts | 145° |
| 2026-04-24 03:28 | -24.89195 | -57.66244 | 5827 ft | 252 kts | 145° |
| 2026-04-24 03:28 | -24.90647 | -57.65190 | 5492 ft | 248 kts | 145° |
| 2026-04-24 03:29 | -24.92065 | -57.64161 | 5215 ft | 241 kts | 145° |
| 2026-04-24 03:29 | -24.93455 | -57.63154 | 5131 ft | 238 kts | 145° |
| 2026-04-24 03:29 | -24.94841 | -57.62153 | 5214 ft | 238 kts | 145° |
| 2026-04-24 03:29 | -24.96214 | -57.61161 | 5134 ft | 233 kts | 145° |
| 2026-04-24 03:30 | -24.97568 | -57.60179 | 4727 ft | 233 kts | 145° |
| 2026-04-24 03:30 | -24.98916 | -57.59199 | 4383 ft | 230 kts | 145° |
| 2026-04-24 03:30 | -25.00148 | -57.58108 | 4062 ft | 224 kts | 127° |
| 2026-04-24 03:30 | -25.01007 | -57.56724 | 3845 ft | 213 kts | 119° |
| 2026-04-24 03:31 | -25.01747 | -57.55394 | 3718 ft | 197 kts | 119° |
| 2026-04-24 03:31 | -25.02457 | -57.54127 | 3439 ft | 192 kts | 119° |
| 2026-04-24 03:31 | -25.03167 | -57.52881 | 3123 ft | 193 kts | 120° |
| 2026-04-24 03:31 | -25.03883 | -57.51633 | 2893 ft | 193 kts | 120° |
| 2026-04-24 03:32 | -25.04599 | -57.50393 | 2742 ft | 191 kts | 121° |
| 2026-04-24 03:32 | -25.05314 | -57.49162 | 2628 ft | 190 kts | 121° |
| 2026-04-24 03:32 | -25.06164 | -57.48055 | 2516 ft | 191 kts | 147° |
| 2026-04-24 03:32 | -25.07445 | -57.47771 | 2430 ft | 192 kts | 184° |
| 2026-04-24 03:33 | -25.08734 | -57.48063 | 2376 ft | 191 kts | 194° |
| 2026-04-24 03:33 | -25.10016 | -57.48451 | 2301 ft | 191 kts | 194° |
| 2026-04-24 03:33 | -25.11297 | -57.48810 | 2234 ft | 190 kts | 193° |
| 2026-04-24 03:33 | -25.12580 | -57.49133 | 2124 ft | 189 kts | 192° |
| 2026-04-24 03:34 | -25.13855 | -57.49446 | 1922 ft | 186 kts | 192° |
| 2026-04-24 03:34 | -25.15088 | -57.49747 | 1718 ft | 175 kts | 192° |
| 2026-04-24 03:34 | -25.16216 | -57.50023 | 1502 ft | 154 kts | 192° |
| 2026-04-24 03:34 | -25.17178 | -57.50257 | 1277 ft | 134 kts | 192° |
| 2026-04-24 03:35 | -25.18082 | -57.50477 | 1114 ft | 134 kts | 193° |
| 2026-04-24 03:35 | -25.18986 | -57.50699 | 973 ft | 132 kts | 194° |
| 2026-04-24 03:35 | -25.19879 | -57.50911 | 811 ft | 131 kts | 192° |
| 2026-04-24 03:35 | -25.20762 | -57.51134 | 650 ft | 129 kts | 193° |
| 2026-04-24 03:36 | -25.21637 | -57.51341 | 456 ft | 128 kts | 194° |
| 2026-04-24 03:36 | -25.22504 | -57.51553 | 309 ft | 128 kts | 193° |
| 2026-04-24 03:36 | -25.23332 | -57.51761 | 277 ft | 114 kts | 192° |
| 2026-04-24 03:36 | -25.23941 | -57.51904 | 286 ft | 61 kts | 192° |
| 2026-04-24 03:37 | -25.24160 | -57.51957 | 294 ft | 5 kts | 192° |
| 2026-04-24 03:37 | -25.24202 | -57.51967 | 291 ft | 8 kts | 192° |
| 2026-04-24 03:37 | -25.24241 | -57.51960 | 291 ft | 10 kts | 145° |
| 2026-04-24 03:37 | -25.24270 | -57.51883 | 292 ft | 12 kts | 103° |
| 2026-04-24 03:38 | -25.24289 | -57.51789 | 292 ft | 14 kts | 101° |
| 2026-04-24 03:38 | -25.24301 | -57.51684 | 291 ft | 10 kts | 65° |
| 2026-04-24 03:38 | -25.24245 | -57.51642 | 288 ft | 11 kts | 26° |
| 2026-04-24 03:38 | -25.24225 | -57.51570 | 288 ft | 7 kts | 111° |
| 2026-04-24 03:39 | -25.24231 | -57.51556 | 288 ft | 0 kts | 118° |
| 2026-04-24 03:41 | -25.24237 | -57.51547 | 291 ft | 0 kts | 125° |